الصفحة الرئيسية
METAR-TAF:

METAR-TAF

مطار :

مطار لويس مارين مونيوز

سان خوان, بويرتو ريكو, الولايات المتحدة

دائرة عرض: 18-27N, خط طول: 066-00W, ارتفاع: 3 متر

مراقبة الطقس الحالي

تاريخ ووقت الإصدار 40 دقيقة قبل الساعة 21:56UTC
ريح 17 عقدة من الشرق
درجة الحرارة 28°درجة مئوية
الرطوبة 84%
ضغط 1018 hPa
الرؤية: 16.1 كم
غيوم قليلة على ارتفاع 1800 قدم
غيوم متفرقة على ارتفاع 3200 قدم
غيوم متفرقة على ارتفاع 7500 قدم

METAR: TJSJ 242156Z 08017KT 10SM FEW018 SCT032 SCT075 28/25 A3007 RMK AO2 RAB33E46 SLP180 VCSH SE-S P0000 T02780250 $

زمن: 18:36 (22:36 UTC)

توقعات

تاريخ ووقت الإصدار 4ساعات و 56 دقيقة قبل الساعة 17:40UTC
التوقعات صالحة من24 الساعة 18 UTC إلى 25 الساعة 18 UTC
ريح 15 عقدة من الشرق تتزايد حتى 25 عقدة
الرؤية: 10 كم
غيوم متفرقة على ارتفاع 2500 قدم
من 24 الساعة 2200 UTC
ريح 13 عقدة من الشرق
الرؤية: 10 كم
غيوم قليلة على ارتفاع 2500 قدم
غيوم متفرقة على ارتفاع 7000 قدم
من 25 الساعة 1300 UTC
ريح 12 عقدة من الشرق
الرؤية: 10 كم
غيوم متفرقة على ارتفاع 2500 قدم

TAF: TJSJ 241740Z 2418/2518 10015G25KT P6SM SCT025 FM242200 09013KT P6SM FEW025 SCT070 FM251300 08012KT P6SM SCT025

أرصاد الطقس والتوقعات من أكثر من 4000 مطار (تقارير الطقس للمطار METAR والتنبؤ بالطقس بالمطارTAF).

المحطات المتاحة هي النقط الصفراء والحمراء على الخريطة.

حرك المؤشر فوق النقطة لمعرفة اسم المحطة.

ثم انقر لمعرفة أرصاد وتوقعات الطقس.

لتغيير الخارطة: اضغط على الأزرار الخضراء مع رمز الصليب الأسود للتكبير. على الزر الأخضر مع شرطة للتصغير، أو على الأسهم الخضراء للخرائط المجاورة.


METAR-TAF: